FW7665 Weather Reports


Display with metric or nautical units.
time (UTC)temp
F
wind
direction
speed
MPH
gust
MPH
rain 1hr
in
rain 24hr
in
rain mn
in
humidity
%
barometer
mb
20221126151802 28 144 0.0 3.0 0.00 0.00 0.00 66 1014.1
20221126150923 27 107 1.0 6.0 0.00 0.00 0.00 66 1014.1
20221126150002 27 149 0.0 1.0 0.00 0.00 0.00 68 1014.1
20221126145402 27 149 0.0 2.0 0.00 0.00 0.00 66 1014.1
20221126144503 27 149 0.0 2.0 0.00 0.00 0.00 65 1014.1
20221126143602 27 0 0.0 0.0 0.00 0.00 0.00 64 1014.1
20221126142703 27 149 0.0 2.0 0.00 0.00 0.00 65 1014.1
20221126141802 27 0 0.0 0.0 0.00 0.00 0.00 67 1014.1
20221126140903 27 0 0.0 0.0 0.00 0.00 0.00 66 1014.1
20221126140003 27 0 0.0 0.0 0.00 0.00 0.00 67 1014.1
20221126135423 27 149 0.0 2.0 0.00 0.00 0.00 67 1014.1
20221126134502 26 149 0.0 3.0 0.00 0.00 0.00 70 1014.1
20221126133602 26 149 0.0 3.0 0.00 0.00 0.00 72 1014.1
20221126132703 26 148 0.0 3.0 0.00 0.00 0.00 72 1014.1
20221126131803 26 148 0.0 2.0 0.00 0.00 0.00 73 1014.1
20221126130902 26 148 0.0 2.0 0.00 0.00 0.00 72 1015.2
20221126130003 25 147 0.0 4.0 0.00 0.00 0.00 72 1015.2
20221126125402 25 147 0.0 3.0 0.00 0.00 0.00 74 1015.2
20221126124524 25 185 0.0 3.0 0.00 0.00 0.00 75 1015.2
20221126123602 24 0 0.0 0.0 0.00 0.00 0.00 75 1015.2
20221126122702 24 0 0.0 0.0 0.00 0.00 0.00 76 1015.2
20221126121824 24 261 0.0 2.0 0.00 0.00 0.00 77 1015.2
20221126120903 24 0 0.0 0.0 0.00 0.00 0.00 78 1015.2
20221126120003 23 0 0.0 0.0 0.00 0.00 0.00 77 1015.2
20221126115402 23 0 0.0 0.0 0.00 0.00 0.00 78 1015.2
20221126114502 23 0 0.0 0.0 0.00 0.00 0.00 78 1015.2
20221126113603 23 0 0.0 0.0 0.00 0.00 0.00 77 1015.2
20221126112703 23 0 0.0 0.0 0.00 0.00 0.00 78 1015.2
20221126111802 23 0 0.0 0.0 0.00 0.00 0.00 78 1015.2
20221126110903 23 238 0.0 3.0 0.00 0.00 0.00 78 1015.4
20221126110003 22 0 0.0 0.0 0.00 0.00 0.00 78 1017.0
20221126105402 22 0 0.0 0.0 0.00 0.00 0.00 79 1017.0
20221126104503 22 0 0.0 0.0 0.00 0.00 0.00 79 1017.0
20221126103603 22 0 0.0 0.0 0.00 0.00 0.00 79 1017.0
20221126102702 22 240 0.0 2.0 0.00 0.00 0.00 79 1017.0
20221126101802 22 0 0.0 0.0 0.00 0.00 0.00 79 1017.0
20221126100903 22 0 0.0 0.0 0.00 0.00 0.00 79 1017.0
20221126100025 22 0 0.0 0.0 0.00 0.00 0.00 78 1017.0
20221126095402 22 0 0.0 0.0 0.00 0.00 0.00 78 1017.0
20221126094503 22 0 0.0 0.0 0.00 0.00 0.00 78 1017.0
20221126093602 22 0 0.0 0.0 0.00 0.00 0.00 78 1017.0
20221126092702 21 0 0.0 0.0 0.00 0.00 0.00 78 1017.0
20221126091803 21 241 0.0 2.0 0.00 0.00 0.00 78 1017.0
20221126090903 21 241 0.0 2.0 0.00 0.00 0.00 78 1018.1
20221126090003 21 0 0.0 0.0 0.00 0.00 0.00 78 1018.1
20221126085402 21 0 0.0 0.0 0.00 0.00 0.00 78 1018.1
20221126084502 21 0 0.0 0.0 0.00 0.00 0.00 77 1018.1
20221126083602 21 0 0.0 0.0 0.00 0.00 0.00 78 1018.1
20221126082703 22 0 0.0 0.0 0.00 0.00 0.00 78 1018.1
20221126081824 22 0 0.0 0.0 0.00 0.00 0.00 78 1018.1
20221126080903 22 0 0.0 0.0 0.00 0.00 0.00 78 1019.4
20221126080004 22 0 0.0 0.0 0.00 0.00 0.00 78 1019.4
20221126075403 22 0 0.0 0.0 0.00 0.00 0.00 78 1019.4
20221126074503 22 241 0.0 5.0 0.00 0.00 0.00 78 1019.4
20221126073603 22 0 0.0 0.0 0.00 0.00 0.00 78 1019.4
20221126072703 22 0 0.0 0.0 0.00 0.00 0.00 78 1019.4
20221126071803 22 0 0.0 0.0 0.00 0.00 0.00 77 1019.4
20221126070902 22 240 0.0 3.0 0.00 0.00 0.00 78 1020.3
20221126070013 22 241 0.0 4.0 0.00 0.00 0.00 78 1020.3
20221126065403 22 241 0.0 4.0 0.00 0.00 0.00 78 1020.3
20221126064503 22 0 0.0 0.0 0.00 0.00 0.00 78 1020.3
20221126063603 23 0 0.0 0.0 0.00 0.00 0.00 78 1020.3
20221126062703 23 0 0.0 0.0 0.00 0.00 0.00 78 1020.3
20221126061804 23 0 0.0 0.0 0.00 0.00 0.00 77 1020.3
20221126060903 23 0 0.0 0.0 0.00 0.00 0.00 78 1021.2
20221126060003 23 0 0.0 0.0 0.00 0.00 0.00 77 1021.2
20221126055402 23 0 0.0 0.0 0.00 0.00 0.00 78 1021.2
20221126054503 24 0 0.0 0.0 0.00 0.00 0.00 76 1021.2
20221126053603 24 0 0.0 0.0 0.00 0.00 0.00 77 1021.2
20221126052703 24 0 0.0 0.0 0.00 0.00 0.00 77 1021.2
20221126051803 24 0 0.0 0.0 0.00 0.00 0.00 77 1021.2
20221126050902 24 219 0.0 2.0 0.00 0.00 0.00 76 1022.0
20221126050003 24 0 0.0 0.0 0.00 0.00 0.00 76 1022.0
20221126045424 24 0 0.0 0.0 0.00 0.00 0.00 77 1022.0
20221126044503 24 0 0.0 0.0 0.00 0.00 0.00 76 1022.0
20221126043603 25 0 0.0 0.0 0.00 0.00 0.00 76 1022.0
20221126042724 25 0 0.0 0.0 0.00 0.00 0.00 76 1022.0
20221126041803 25 0 0.0 0.0 0.00 0.00 0.00 76 1022.0
20221126040903 25 0 0.0 0.0 0.00 0.00 0.00 76 1022.5
20221126040003 25 0 0.0 0.0 0.00 0.00 0.00 75 1022.5
20221126035403 25 0 0.0 0.0 0.00 0.00 0.00 75 1022.5
20221126034503 25 0 0.0 0.0 0.00 0.00 0.00 76 1022.5
20221126033603 25 0 0.0 0.0 0.00 0.00 0.00 76 1022.5
20221126032703 26 0 0.0 0.0 0.00 0.00 0.00 75 1022.5
20221126031803 26 0 0.0 0.0 0.00 0.00 0.00 74 1022.5
20221126030924 26 0 0.0 0.0 0.00 0.00 0.00 74 1023.2
20221126030003 26 0 0.0 0.0 0.00 0.00 0.00 76 1023.2
20221126025403 26 0 0.0 0.0 0.00 0.00 0.00 74 1023.2
20221126024503 26 0 0.0 0.0 0.00 0.00 0.00 75 1023.2
20221126023603 26 0 0.0 0.0 0.00 0.00 0.00 73 1023.2
20221126022703 26 0 0.0 0.0 0.00 0.00 0.00 74 1023.2
20221126021803 26 0 0.0 0.0 0.00 0.00 0.00 74 1023.2
20221126020924 26 0 0.0 0.0 0.00 0.00 0.00 75 1023.5
20221126020003 27 0 0.0 0.0 0.00 0.00 0.00 75 1023.5
20221126015403 27 0 0.0 0.0 0.00 0.00 0.00 73 1023.5
20221126014503 27 0 0.0 0.0 0.00 0.00 0.00 74 1023.5
20221126013603 27 0 0.0 0.0 0.00 0.00 0.00 74 1023.5
20221126012724 27 0 0.0 0.0 0.00 0.00 0.00 73 1023.5
20221126011803 28 0 0.0 0.0 0.00 0.00 0.00 74 1023.5
20221126010903 28 0 0.0 0.0 0.00 0.00 0.00 73 1023.8
20221126010024 28 0 0.0 0.0 0.00 0.00 0.00 72 1023.8
20221126005403 28 0 0.0 0.0 0.00 0.00 0.00 72 1023.8
20221126004524 28 0 0.0 0.0 0.00 0.00 0.00 71 1023.8
20221126003624 29 0 0.0 0.0 0.00 0.00 0.00 72 1023.8
20221126002703 29 0 0.0 0.0 0.00 0.00 0.00 70 1023.8
20221126001803 29 0 0.0 0.0 0.00 0.00 0.00 71 1023.8
20221126000903 29 0 0.0 0.0 0.00 0.00 0.00 72 1023.6
20221126000003 30 0 0.0 0.0 0.00 0.00 0.00 70 1023.6
20221125235403 30 0 0.0 0.0 0.00 0.00 0.00 70 1023.6
20221125234503 30 0 0.0 0.0 0.00 0.00 0.00 71 1023.6
20221125233603 30 0 0.0 0.0 0.00 0.00 0.00 71 1023.6
20221125232703 31 0 0.0 0.0 0.00 0.00 0.00 71 1023.6
20221125231803 31 0 0.0 0.0 0.00 0.00 0.00 71 1023.6
20221125230903 31 0 0.0 0.0 0.00 0.00 0.00 71 1023.7
20221125230003 31 0 0.0 0.0 0.00 0.00 0.00 70 1023.7
20221125225403 31 0 0.0 0.0 0.00 0.00 0.00 69 1023.7
20221125224524 31 0 0.0 0.0 0.00 0.00 0.00 69 1023.7
20221125223603 32 0 0.0 0.0 0.00 0.00 0.00 67 1023.7
20221125222724 32 0 0.0 0.0 0.00 0.00 0.00 69 1023.7
20221125221803 32 0 0.0 0.0 0.00 0.00 0.00 67 1023.7
20221125220903 33 0 0.0 0.0 0.00 0.00 0.00 66 1023.6
20221125220004 33 0 0.0 0.0 0.00 0.00 0.00 65 1023.6
20221125215403 33 0 0.0 0.0 0.00 0.00 0.00 65 1023.6
20221125214503 34 0 0.0 0.0 0.00 0.00 0.00 66 1023.6
20221125213603 34 0 0.0 0.0 0.00 0.00 0.00 65 1023.6
20221125212703 34 0 0.0 0.0 0.00 0.00 0.00 65 1023.6
20221125211803 34 0 0.0 0.0 0.00 0.00 0.00 63 1023.6
20221125210904 35 0 0.0 0.0 0.00 0.00 0.00 62 1024.3
20221125210004 35 0 0.0 0.0 0.00 0.00 0.00 61 1024.3
20221125205424 36 0 0.0 0.0 0.00 0.00 0.00 60 1024.3
20221125204503 36 0 0.0 0.0 0.00 0.00 0.00 58 1024.3
20221125203603 37 0 0.0 0.0 0.00 0.00 0.00 58 1024.3
20221125202703 37 0 0.0 0.0 0.00 0.00 0.00 57 1024.3
20221125201803 38 0 0.0 0.0 0.00 0.00 0.00 55 1024.3
20221125200924 38 0 0.0 0.0 0.00 0.00 0.00 54 1025.5
20221125200003 39 0 0.0 0.0 0.00 0.00 0.00 53 1025.5
20221125195403 39 0 0.0 0.0 0.00 0.00 0.00 52 1025.5
20221125194503 40 0 0.0 0.0 0.00 0.00 0.00 49 1025.5
20221125193604 40 0 0.0 0.0 0.00 0.00 0.00 49 1025.5
20221125192724 40 0 0.0 0.0 0.00 0.00 0.00 47 1025.5
20221125191803 40 0 0.0 0.0 0.00 0.00 0.00 48 1025.5
20221125190903 40 0 0.0 0.0 0.00 0.00 0.00 47 1029.3
20221125190003 39 0 0.0 0.0 0.00 0.00 0.00 48 1029.3
20221125185403 39 0 0.0 0.0 0.00 0.00 0.00 47 1029.3
20221125184504 38 0 0.0 0.0 0.00 0.00 0.00 47 1029.3
20221125183603 38 0 0.0 0.0 0.00 0.00 0.00 47 1029.3
20221125182703 37 0 0.0 0.0 0.00 0.00 0.00 51 1029.3
20221125181824 37 0 0.0 0.0 0.00 0.00 0.00 50 1029.3
20221125180903 36 0 0.0 0.0 0.00 0.00 0.00 53 1029.3
20221125180004 35 0 0.0 0.0 0.00 0.00 0.00 53 1029.3
20221125175403 35 0 0.0 0.0 0.00 0.00 0.00 54 1029.3
20221125174503 34 0 0.0 0.0 0.00 0.00 0.00 57 1029.3
20221125173602 33 0 0.0 0.0 0.00 0.00 0.00 57 1029.3
20221125172701 33 0 0.0 0.0 0.00 0.00 0.00 60 1029.3
20221125171801 32 0 0.0 0.0 0.00 0.00 0.00 61 1029.3
20221125170901 31 0 0.0 0.0 0.00 0.00 0.00 63 1029.3
20221125170002 30 0 0.0 0.0 0.00 0.00 0.00 69 1029.3
20221125165422 29 0 0.0 0.0 0.00 0.00 0.00 73 1029.3
20221125164501 27 0 0.0 0.0 0.00 0.00 0.00 79 1029.3
20221125163601 25 0 0.0 0.0 0.00 0.00 0.00 80 1029.3
20221125162722 24 0 0.0 0.0 0.00 0.00 0.00 83 1030.1
20221125161801 22 0 0.0 0.0 0.00 0.00 0.00 84 1030.1
20221125160901 21 0 0.0 0.0 0.00 0.00 0.00 86 1030.1
20221125160002 20 0 0.0 0.0 0.00 0.00 0.00 86 1030.1
20221125155401 19 0 0.0 0.0 0.00 0.00 0.00 86 1030.1
20221125154501 18 0 0.0 0.0 0.00 0.00 0.00 85 1030.1
20221125153601 17 0 0.0 0.0 0.00 0.00 0.00 84 1030.1
20221125152702 17 0 0.0 0.0 0.00 0.00 0.00 84 1030.4